createdAt,value
2022-09-30T00:01:35.335Z,5.53
2022-09-30T00:04:04.009Z,5.10
2022-09-30T00:06:32.607Z,5.53
2022-09-30T00:09:01.836Z,6.43
2022-09-30T00:11:31.220Z,7.57
2022-09-30T00:14:01.166Z,7.03
2022-09-30T00:16:30.219Z,6.27
2022-09-30T00:18:58.792Z,6.40
2022-09-30T00:21:27.101Z,7.57
2022-09-30T00:23:55.564Z,7.03
2022-09-30T00:26:24.284Z,7.23
2022-09-30T00:28:52.679Z,6.93
2022-09-30T00:31:22.714Z,6.80
2022-09-30T00:34:07.024Z,5.03
2022-09-30T00:36:35.969Z,7.10
2022-09-30T00:39:04.687Z,7.53
2022-09-30T00:41:32.979Z,5.03
2022-09-30T00:44:01.318Z,6.03
2022-09-30T00:46:33.562Z,6.37
2022-09-30T00:49:02.576Z,5.47
2022-09-30T00:51:31.317Z,6.30
2022-09-30T00:53:59.752Z,6.63
2022-09-30T00:56:28.517Z,5.03
2022-09-30T00:58:57.520Z,7.40
2022-09-30T01:01:25.948Z,7.80
2022-09-30T01:03:57.470Z,7.40
2022-09-30T01:06:26.289Z,6.23
2022-09-30T01:08:55.293Z,6.37
2022-09-30T01:11:23.641Z,6.77
2022-09-30T01:13:52.817Z,6.57
2022-09-30T01:16:28.154Z,6.23
2022-09-30T01:19:00.716Z,6.63
2022-09-30T01:21:47.054Z,5.07
2022-09-30T01:24:19.517Z,5.90
2022-09-30T01:26:52.198Z,6.00
2022-09-30T01:29:53.735Z,5.30
2022-09-30T01:32:26.035Z,7.53
2022-09-30T01:34:55.301Z,7.30
2022-09-30T01:37:25.257Z,5.30
2022-09-30T01:39:53.999Z,5.90
2022-09-30T01:42:24.578Z,6.87
2022-09-30T01:44:55.304Z,7.80
2022-09-30T01:47:26.434Z,5.77
2022-09-30T01:49:55.962Z,5.87
2022-09-30T01:52:25.838Z,5.80
2022-09-30T01:54:55.107Z,6.30
2022-09-30T01:57:24.584Z,7.23
2022-09-30T01:59:53.340Z,5.13
2022-09-30T02:02:22.722Z,7.00
2022-09-30T02:04:52.605Z,6.43
2022-09-30T02:07:23.808Z,6.03
2022-09-30T02:09:53.730Z,7.27
2022-09-30T02:12:22.329Z,7.83
2022-09-30T02:14:51.082Z,6.17
2022-09-30T02:17:20.347Z,6.17
2022-09-30T02:19:49.529Z,6.73
2022-09-30T02:22:20.065Z,7.40
2022-09-30T02:24:48.753Z,6.87
2022-09-30T02:27:17.921Z,5.57
2022-09-30T02:29:47.625Z,6.23
2022-09-30T02:32:18.548Z,5.70
2022-09-30T02:34:47.593Z,6.23
2022-09-30T02:37:16.519Z,7.83
2022-09-30T02:39:48.439Z,5.90
2022-09-30T02:42:20.396Z,6.90
2022-09-30T02:44:49.054Z,6.43
2022-09-30T02:47:17.917Z,6.80
2022-09-30T02:49:48.307Z,6.73
2022-09-30T02:52:20.265Z,6.80
2022-09-30T02:54:52.519Z,6.70
2022-09-30T02:57:21.609Z,6.47
2022-09-30T02:59:51.024Z,8.07
2022-09-30T03:02:19.433Z,7.60
2022-09-30T03:04:47.829Z,7.60
2022-09-30T03:07:16.300Z,8.00
2022-09-30T03:09:44.610Z,7.87
2022-09-30T03:12:16.683Z,9.83
2022-09-30T03:14:52.535Z,9.10
2022-09-30T03:17:28.500Z,15.63
2022-09-30T03:20:10.206Z,11.97
2022-09-30T03:22:45.997Z,8.77
2022-09-30T03:25:19.545Z,11.80
2022-09-30T03:27:51.860Z,10.70
2022-09-30T03:30:24.324Z,8.60
2022-09-30T03:32:56.326Z,11.87
2022-09-30T03:35:27.917Z,9.27
2022-09-30T03:37:58.707Z,9.60
2022-09-30T03:40:29.357Z,11.10
2022-09-30T03:42:59.468Z,9.73
2022-09-30T03:45:29.190Z,11.03
2022-09-30T03:47:57.987Z,12.90
2022-09-30T03:50:26.505Z,15.13
2022-09-30T03:52:54.800Z,11.53
2022-09-30T03:55:23.160Z,12.47
2022-09-30T03:57:52.146Z,12.37
2022-09-30T04:00:21.976Z,10.83
2022-09-30T04:02:52.647Z,10.90
2022-09-30T04:05:22.983Z,13.27
2022-09-30T04:07:51.267Z,12.13
2022-09-30T04:10:19.556Z,11.23
2022-09-30T04:12:47.863Z,11.83
2022-09-30T04:15:16.368Z,13.90
2022-09-30T04:17:46.007Z,16.40
2022-09-30T04:20:14.385Z,14.97
2022-09-30T04:22:42.737Z,13.13
2022-09-30T04:25:11.266Z,11.97
2022-09-30T04:27:40.025Z,14.13
2022-09-30T04:30:08.583Z,13.43
2022-09-30T04:32:36.902Z,13.63
2022-09-30T04:35:06.997Z,13.83
2022-09-30T04:37:35.346Z,14.73
2022-09-30T04:40:03.995Z,15.03
2022-09-30T04:42:33.175Z,14.43
2022-09-30T04:45:01.442Z,15.47
2022-09-30T04:47:30.154Z,17.20
2022-09-30T04:49:58.407Z,16.50
2022-09-30T04:52:28.215Z,15.00
2022-09-30T04:54:56.515Z,15.67
2022-09-30T04:57:24.892Z,14.63
2022-09-30T04:59:53.301Z,16.30
2022-09-30T05:02:21.609Z,17.77
2022-09-30T05:04:50.041Z,16.30
2022-09-30T05:07:18.421Z,17.70
2022-09-30T05:09:48.160Z,19.97
2022-09-30T05:12:16.849Z,17.33
2022-09-30T05:14:45.191Z,17.93
2022-09-30T05:17:13.461Z,16.03
2022-09-30T05:19:41.759Z,17.90
2022-09-30T05:22:10.094Z,17.70
2022-09-30T05:24:38.378Z,21.00
2022-09-30T05:27:08.122Z,20.80
2022-09-30T05:29:36.589Z,19.30
2022-09-30T05:32:04.906Z,19.77
2022-09-30T05:34:33.233Z,20.63
2022-09-30T05:37:01.839Z,17.50
2022-09-30T05:39:30.169Z,21.23
2022-09-30T05:41:58.523Z,17.37
2022-09-30T05:44:28.294Z,16.57
2022-09-30T05:46:57.459Z,18.43
2022-09-30T05:49:25.946Z,16.97
2022-09-30T05:51:54.480Z,15.73
2022-09-30T05:54:22.828Z,17.13
2022-09-30T05:56:51.832Z,19.20
2022-09-30T05:59:20.590Z,17.47
2022-09-30T06:01:50.352Z,19.90
2022-09-30T06:04:19.000Z,18.23
2022-09-30T06:06:48.607Z,18.83
2022-09-30T06:09:17.195Z,16.47
2022-09-30T06:11:45.559Z,17.80
2022-09-30T06:14:13.897Z,18.37
2022-09-30T06:16:42.243Z,18.83
2022-09-30T06:19:11.983Z,17.53
2022-09-30T06:21:45.819Z,18.23
2022-09-30T06:24:14.757Z,19.40
2022-09-30T06:26:43.456Z,21.13
2022-09-30T06:29:11.843Z,16.13
2022-09-30T06:31:40.274Z,21.70
2022-09-30T06:34:08.743Z,18.80
2022-09-30T06:36:38.436Z,18.97
2022-09-30T06:39:11.448Z,19.43
2022-09-30T06:41:44.179Z,17.87
2022-09-30T06:44:12.643Z,20.67
2022-09-30T06:46:51.140Z,16.67
2022-09-30T06:49:22.329Z,16.30
2022-09-30T06:51:52.271Z,16.63
2022-09-30T06:54:21.945Z,17.00
2022-09-30T06:56:53.376Z,15.77
2022-09-30T06:59:21.854Z,19.33
2022-09-30T07:01:50.390Z,18.20
2022-09-30T07:04:18.772Z,18.97
2022-09-30T07:06:47.175Z,18.80
2022-09-30T07:09:17.898Z,16.67
2022-09-30T07:11:46.360Z,17.73
2022-09-30T07:14:14.797Z,16.83
2022-09-30T07:16:45.327Z,17.27
2022-09-30T07:19:14.652Z,15.23
2022-09-30T07:21:43.033Z,13.20
2022-09-30T07:24:11.976Z,19.47
2022-09-30T07:26:41.675Z,15.33
2022-09-30T07:29:09.937Z,16.80
2022-09-30T07:31:38.406Z,16.13
2022-09-30T07:34:08.063Z,14.70
2022-09-30T07:36:37.193Z,20.40
2022-09-30T07:39:06.777Z,15.17
2022-09-30T07:41:36.592Z,14.13
2022-09-30T07:44:06.968Z,13.53
2022-09-30T07:46:36.299Z,13.47
2022-09-30T07:49:06.169Z,13.50
2022-09-30T07:51:34.931Z,12.33
2022-09-30T07:54:05.836Z,14.37
2022-09-30T07:56:57.818Z,17.17
2022-09-30T07:59:23.918Z,20.33
2022-09-30T08:01:52.347Z,15.97
2022-09-30T08:04:20.828Z,19.53
2022-09-30T08:06:49.903Z,14.90
2022-09-30T08:09:19.167Z,18.20
2022-09-30T08:11:47.576Z,14.60
2022-09-30T08:14:16.111Z,21.87
2022-09-30T08:16:45.819Z,15.87
2022-09-30T08:19:15.926Z,16.23
2022-09-30T08:21:44.256Z,13.17
2022-09-30T08:24:12.594Z,13.50
2022-09-30T08:26:40.977Z,13.63
2022-09-30T08:29:12.371Z,12.17
2022-09-30T08:31:42.511Z,13.97
2022-09-30T08:34:12.202Z,11.07
2022-09-30T08:36:40.475Z,9.37
2022-09-30T08:39:10.908Z,9.37
2022-09-30T08:41:43.370Z,8.77
2022-09-30T08:44:16.002Z,6.30
2022-09-30T08:46:45.693Z,8.87
2022-09-30T08:49:20.426Z,6.67
2022-09-30T08:51:49.591Z,5.83
2022-09-30T08:54:18.738Z,7.47
2022-09-30T08:56:47.299Z,5.20
2022-09-30T08:59:17.028Z,7.37
2022-09-30T09:01:46.781Z,5.57
2022-09-30T09:04:15.110Z,8.87
2022-09-30T09:06:47.881Z,5.07
2022-09-30T09:09:23.388Z,7.30
2022-09-30T09:11:59.273Z,6.27
2022-09-30T09:14:31.070Z,6.57
2022-09-30T09:17:03.101Z,4.63
2022-09-30T09:19:33.147Z,4.00
2022-09-30T09:22:03.737Z,5.83
2022-09-30T09:24:32.283Z,5.63
2022-09-30T09:27:00.597Z,5.23
2022-09-30T09:29:32.704Z,6.60
2022-09-30T09:32:02.066Z,4.43
2022-09-30T09:34:30.470Z,11.60
2022-09-30T09:37:01.806Z,8.50
2022-09-30T09:39:39.676Z,5.07
2022-09-30T09:42:10.164Z,4.47
2022-09-30T09:44:40.019Z,5.80
2022-09-30T09:47:14.267Z,3.80
2022-09-30T09:49:42.565Z,4.20
2022-09-30T09:52:29.545Z,2.57
2022-09-30T09:55:00.853Z,2.27
2022-09-30T09:57:32.249Z,2.70
2022-09-30T10:00:21.562Z,5.17
2022-09-30T10:03:00.368Z,1.80
2022-09-30T10:05:29.985Z,4.03
2022-09-30T10:08:10.388Z,3.07
2022-09-30T10:10:52.597Z,3.13
2022-09-30T10:13:21.674Z,4.40
2022-09-30T10:15:50.148Z,3.57
2022-09-30T10:18:19.519Z,2.33
2022-09-30T10:20:52.022Z,2.73
2022-09-30T10:23:20.833Z,3.50
2022-09-30T10:26:04.823Z,3.27
2022-09-30T10:28:33.912Z,2.40
2022-09-30T10:31:03.318Z,2.10
2022-09-30T10:33:32.433Z,5.60
2022-09-30T10:36:08.465Z,2.40
2022-09-30T10:38:37.108Z,2.57
2022-09-30T10:41:07.060Z,4.90
2022-09-30T10:43:36.590Z,3.97
2022-09-30T10:46:25.052Z,3.73
2022-09-30T10:48:54.363Z,4.93
2022-09-30T10:51:34.025Z,5.20
2022-09-30T10:54:02.434Z,8.13
2022-09-30T10:56:37.889Z,3.80
2022-09-30T10:59:06.558Z,5.00
2022-09-30T11:01:35.554Z,5.33
2022-09-30T11:04:05.214Z,4.33
2022-09-30T11:06:33.862Z,3.80
2022-09-30T11:09:03.859Z,4.43
2022-09-30T11:11:36.894Z,4.13
2022-09-30T11:14:08.439Z,5.47
2022-09-30T11:16:39.042Z,3.30
2022-09-30T11:19:10.441Z,5.53
2022-09-30T11:21:41.421Z,5.40
2022-09-30T11:24:23.419Z,3.80
2022-09-30T11:26:54.835Z,3.50
2022-09-30T11:29:40.822Z,4.43
2022-09-30T11:32:10.777Z,5.63
2022-09-30T11:34:42.337Z,3.43
2022-09-30T11:37:11.694Z,4.50
2022-09-30T11:39:44.493Z,4.70
2022-09-30T11:42:15.867Z,3.23
2022-09-30T11:44:44.570Z,3.50
2022-09-30T11:47:16.915Z,4.90
2022-09-30T11:49:52.297Z,4.07
2022-09-30T11:52:21.222Z,2.53
2022-09-30T11:55:00.699Z,6.00
2022-09-30T11:57:31.845Z,3.20
2022-09-30T12:00:00.995Z,3.50
2022-09-30T12:02:32.416Z,3.70
2022-09-30T12:05:01.338Z,3.77
2022-09-30T12:07:33.802Z,4.90
2022-09-30T12:10:02.808Z,5.57
2022-09-30T12:12:32.499Z,5.50
2022-09-30T12:15:01.819Z,8.17
2022-09-30T12:17:32.610Z,5.63
2022-09-30T12:20:02.053Z,6.40
2022-09-30T12:22:31.721Z,5.70
2022-09-30T12:24:59.993Z,4.30
2022-09-30T12:27:29.529Z,5.67
2022-09-30T12:30:24.060Z,4.80
2022-09-30T12:33:07.121Z,4.30
2022-09-30T12:35:48.873Z,4.07
2022-09-30T12:38:21.236Z,4.40
2022-09-30T12:40:52.993Z,3.97
2022-09-30T12:43:42.128Z,4.90
2022-09-30T12:46:13.936Z,5.30
2022-09-30T12:48:43.396Z,4.43
2022-09-30T12:51:11.745Z,3.93
2022-09-30T12:53:40.628Z,5.40
2022-09-30T12:56:09.582Z,3.97
2022-09-30T12:58:38.757Z,5.17
2022-09-30T13:01:08.212Z,2.47
2022-09-30T13:03:48.695Z,4.10
2022-09-30T13:06:18.961Z,5.37
2022-09-30T13:08:50.952Z,2.70
2022-09-30T13:11:37.283Z,4.60
2022-09-30T13:14:14.435Z,5.30
2022-09-30T13:17:02.237Z,3.53
2022-09-30T13:19:36.534Z,5.50
2022-09-30T13:22:29.420Z,3.67
2022-09-30T13:25:12.678Z,4.20
2022-09-30T13:27:41.447Z,3.17
2022-09-30T13:30:25.793Z,2.33
2022-09-30T13:33:06.734Z,3.23
2022-09-30T13:35:37.646Z,2.97
2022-09-30T13:38:12.669Z,3.33
2022-09-30T13:41:00.723Z,3.03
2022-09-30T13:43:30.639Z,1.87
2022-09-30T13:45:59.012Z,2.90
2022-09-30T13:48:30.635Z,3.13
2022-09-30T13:51:01.056Z,3.90
2022-09-30T13:53:30.611Z,3.37
2022-09-30T13:55:58.964Z,5.13
2022-09-30T13:58:49.225Z,4.93
2022-09-30T14:01:21.333Z,4.30
2022-09-30T14:03:57.723Z,3.60
2022-09-30T14:06:29.731Z,4.67
2022-09-30T14:09:16.963Z,3.73
2022-09-30T14:11:52.753Z,3.97
2022-09-30T14:14:27.645Z,4.73
2022-09-30T14:17:03.516Z,6.40
2022-09-30T14:19:35.560Z,4.73
2022-09-30T14:22:05.903Z,4.70
2022-09-30T14:24:37.891Z,3.77
2022-09-30T14:27:15.746Z,5.17
2022-09-30T14:29:45.819Z,3.67
2022-09-30T14:32:14.270Z,4.43
2022-09-30T14:34:42.737Z,4.67
2022-09-30T14:37:18.505Z,11.63
2022-09-30T14:39:47.100Z,6.47
2022-09-30T14:42:25.297Z,5.57
2022-09-30T14:44:54.247Z,7.00
2022-09-30T14:47:22.917Z,4.30
2022-09-30T14:49:51.514Z,4.97
2022-09-30T14:52:37.284Z,6.33
2022-09-30T14:55:05.899Z,4.13
2022-09-30T14:57:35.009Z,4.70
2022-09-30T15:00:23.278Z,7.83
2022-09-30T15:02:52.016Z,4.27
2022-09-30T15:05:20.307Z,6.60
2022-09-30T15:07:50.379Z,6.73
2022-09-30T15:10:19.984Z,5.77
2022-09-30T15:12:48.707Z,8.27
2022-09-30T15:15:34.754Z,5.90
2022-09-30T15:18:03.512Z,8.17
2022-09-30T15:20:32.074Z,5.87
2022-09-30T15:23:03.224Z,5.80
2022-09-30T15:25:31.798Z,6.10
2022-09-30T15:28:00.167Z,5.30
2022-09-30T15:30:29.371Z,6.77
2022-09-30T15:33:01.363Z,5.13
2022-09-30T15:35:29.845Z,6.30
2022-09-30T15:38:09.052Z,7.40
2022-09-30T15:40:50.520Z,7.83
2022-09-30T15:43:26.134Z,6.60
2022-09-30T15:45:55.264Z,6.27
2022-09-30T15:48:35.548Z,5.33
2022-09-30T15:51:03.991Z,6.23
2022-09-30T15:53:34.822Z,6.33
2022-09-30T15:56:16.967Z,5.77
2022-09-30T15:58:49.175Z,5.73
2022-09-30T16:01:19.685Z,5.03
2022-09-30T16:03:49.536Z,4.40
2022-09-30T16:06:18.192Z,8.07
2022-09-30T16:08:48.366Z,5.37
2022-09-30T16:11:20.505Z,6.67
2022-09-30T16:13:48.807Z,5.43
2022-09-30T16:16:21.562Z,8.23
2022-09-30T16:18:50.172Z,10.77
2022-09-30T16:21:31.943Z,5.80
2022-09-30T16:24:01.688Z,4.27
2022-09-30T16:26:30.618Z,7.83
2022-09-30T16:29:01.895Z,5.50
2022-09-30T16:31:31.058Z,5.63
2022-09-30T16:33:59.762Z,4.20
2022-09-30T16:36:28.087Z,6.80
2022-09-30T16:38:56.359Z,4.53
2022-09-30T16:41:27.215Z,9.37
2022-09-30T16:43:55.505Z,4.10
2022-09-30T16:46:23.869Z,3.80
2022-09-30T16:48:52.169Z,4.27
2022-09-30T16:51:20.537Z,3.77
2022-09-30T16:53:49.006Z,4.50
2022-09-30T16:56:18.289Z,7.20
2022-09-30T16:58:48.255Z,6.03
2022-09-30T17:01:18.648Z,4.57
2022-09-30T17:03:47.506Z,7.20
2022-09-30T17:06:15.915Z,4.43
2022-09-30T17:08:45.356Z,5.83
2022-09-30T17:11:13.732Z,4.23
2022-09-30T17:13:42.595Z,6.50
2022-09-30T17:16:12.239Z,8.47
2022-09-30T17:18:41.660Z,5.03
2022-09-30T17:21:09.960Z,4.50
2022-09-30T17:23:38.214Z,8.20
2022-09-30T17:26:06.645Z,4.93
2022-09-30T17:28:35.120Z,5.40
2022-09-30T17:31:03.465Z,4.60
2022-09-30T17:33:33.422Z,4.77
2022-09-30T17:36:02.196Z,4.47
2022-09-30T17:38:30.519Z,3.57
2022-09-30T17:41:16.392Z,4.80
2022-09-30T17:43:45.503Z,6.30
2022-09-30T17:46:16.012Z,4.40
2022-09-30T17:48:46.540Z,5.33
2022-09-30T17:51:15.680Z,5.13
2022-09-30T17:53:44.085Z,5.13
2022-09-30T17:56:16.997Z,7.30
2022-09-30T17:58:47.791Z,3.83
2022-09-30T18:01:16.203Z,7.67
2022-09-30T18:03:46.050Z,5.33
2022-09-30T18:06:15.517Z,6.20
2022-09-30T18:08:43.798Z,5.00
2022-09-30T18:11:12.402Z,5.77
2022-09-30T18:13:40.743Z,3.30
2022-09-30T18:16:09.400Z,3.83
2022-09-30T18:18:37.744Z,3.27
2022-09-30T18:21:07.567Z,3.20
2022-09-30T18:23:35.997Z,4.47
2022-09-30T18:26:04.354Z,3.00
2022-09-30T18:28:32.720Z,3.80
2022-09-30T18:31:06.018Z,8.37
2022-09-30T18:33:34.339Z,5.90
2022-09-30T18:36:03.063Z,4.17
2022-09-30T18:38:32.742Z,4.33
2022-09-30T18:41:01.019Z,3.30
2022-09-30T18:43:29.892Z,4.13
2022-09-30T18:45:58.797Z,3.20
2022-09-30T18:48:27.283Z,4.40
2022-09-30T18:50:55.577Z,4.23
2022-09-30T18:53:23.879Z,5.20
2022-09-30T18:55:53.498Z,4.83
2022-09-30T18:58:21.748Z,2.93
2022-09-30T19:00:52.883Z,5.60
2022-09-30T19:03:28.435Z,4.57
2022-09-30T19:05:57.629Z,5.03
2022-09-30T19:08:26.799Z,5.97
2022-09-30T19:10:59.858Z,5.00
2022-09-30T19:13:28.673Z,5.27
2022-09-30T19:15:56.982Z,4.57
2022-09-30T19:18:25.244Z,4.23
2022-09-30T19:20:54.374Z,5.50
2022-09-30T19:23:22.631Z,4.83
2022-09-30T19:25:54.701Z,7.03
2022-09-30T19:28:24.386Z,4.27
2022-09-30T19:30:52.704Z,7.57
2022-09-30T19:33:25.322Z,2.53
2022-09-30T19:36:13.902Z,3.80
2022-09-30T19:38:46.234Z,3.97
2022-09-30T19:41:15.271Z,3.90
2022-09-30T19:43:46.592Z,4.13
2022-09-30T19:46:14.975Z,3.70
2022-09-30T19:48:43.426Z,3.97
2022-09-30T19:51:12.667Z,3.37
2022-09-30T19:53:42.621Z,3.00
2022-09-30T19:56:12.971Z,3.70
2022-09-30T19:58:41.832Z,5.67
2022-09-30T20:01:11.690Z,4.67
2022-09-30T20:03:40.642Z,4.20
2022-09-30T20:06:12.523Z,3.77
2022-09-30T20:08:40.888Z,3.77
2022-09-30T20:11:09.553Z,5.50
2022-09-30T20:13:37.832Z,5.40
2022-09-30T20:16:06.288Z,3.87
2022-09-30T20:18:36.036Z,12.60
2022-09-30T20:21:09.144Z,4.20
2022-09-30T20:23:38.916Z,5.67
2022-09-30T20:26:07.650Z,3.50
2022-09-30T20:28:35.963Z,4.63
2022-09-30T20:31:06.980Z,5.53
2022-09-30T20:33:37.129Z,3.97
2022-09-30T20:36:05.429Z,8.87
2022-09-30T20:38:33.708Z,5.73
2022-09-30T20:41:03.178Z,3.97
2022-09-30T20:43:32.075Z,5.77
2022-09-30T20:46:01.503Z,3.50
2022-09-30T20:48:33.456Z,6.33
2022-09-30T20:51:05.870Z,2.87
2022-09-30T20:53:38.804Z,3.43
2022-09-30T20:56:08.030Z,2.70
2022-09-30T20:58:36.347Z,4.23
2022-09-30T21:01:04.935Z,3.63
2022-09-30T21:03:36.152Z,5.47
2022-09-30T21:06:06.738Z,3.83
2022-09-30T21:08:38.843Z,5.17
2022-09-30T21:11:07.427Z,3.73
2022-09-30T21:13:38.239Z,4.77
2022-09-30T21:16:07.685Z,4.30
2022-09-30T21:18:36.674Z,4.93
2022-09-30T21:21:06.314Z,4.13
2022-09-30T21:23:34.913Z,6.27
2022-09-30T21:26:03.734Z,8.23
2022-09-30T21:28:32.124Z,5.20
2022-09-30T21:31:00.446Z,6.27
2022-09-30T21:33:28.745Z,6.70
2022-09-30T21:36:00.995Z,5.43
2022-09-30T21:38:30.674Z,6.73
2022-09-30T21:41:00.235Z,7.60
2022-09-30T21:43:30.302Z,5.40
2022-09-30T21:45:59.557Z,7.40
2022-09-30T21:48:27.970Z,4.37
2022-09-30T21:50:56.351Z,7.87
2022-09-30T21:53:26.213Z,7.07
2022-09-30T21:55:55.961Z,4.93
2022-09-30T21:58:25.297Z,5.57
2022-09-30T22:00:53.782Z,5.87
2022-09-30T22:03:22.977Z,7.50
2022-09-30T22:05:53.077Z,6.47
2022-09-30T22:08:21.341Z,6.27
2022-09-30T22:10:50.440Z,7.07
2022-09-30T22:13:20.052Z,7.73
2022-09-30T22:15:48.392Z,6.83
2022-09-30T22:18:17.415Z,8.83
2022-09-30T22:20:46.614Z,6.57
2022-09-30T22:23:15.361Z,9.47
2022-09-30T22:25:43.989Z,5.93
2022-09-30T22:28:12.764Z,9.30
2022-09-30T22:30:42.467Z,10.57
2022-09-30T22:33:28.693Z,10.13
2022-09-30T22:36:14.459Z,7.53
2022-09-30T22:38:43.422Z,8.63
2022-09-30T22:41:11.779Z,7.57
2022-09-30T22:43:40.153Z,7.70
2022-09-30T22:46:10.246Z,6.80
2022-09-30T22:48:38.997Z,6.67
2022-09-30T22:51:07.740Z,10.97
2022-09-30T22:53:36.013Z,5.70
2022-09-30T22:56:05.169Z,6.77
2022-09-30T22:58:36.846Z,9.83
2022-09-30T23:01:05.195Z,7.87
2022-09-30T23:03:34.961Z,8.00
2022-09-30T23:06:03.228Z,5.90
2022-09-30T23:08:33.358Z,7.43
2022-09-30T23:11:02.133Z,10.00
2022-09-30T23:13:30.563Z,9.13
2022-09-30T23:15:59.462Z,9.40
2022-09-30T23:18:27.830Z,10.90
2022-09-30T23:20:58.293Z,9.10
2022-09-30T23:23:26.580Z,7.70
2022-09-30T23:25:59.540Z,10.20
2022-09-30T23:28:27.996Z,8.13
2022-09-30T23:30:57.316Z,8.80
2022-09-30T23:33:26.142Z,7.17
2022-09-30T23:35:56.118Z,8.73
2022-09-30T23:38:27.761Z,8.63
2022-09-30T23:40:59.096Z,11.70
2022-09-30T23:43:27.420Z,8.83
2022-09-30T23:45:55.895Z,8.53
2022-09-30T23:48:24.411Z,12.30
2022-09-30T23:50:53.170Z,9.30
2022-09-30T23:53:21.736Z,7.97
2022-09-30T23:55:57.512Z,8.47
2022-09-30T23:58:25.879Z,10.37
